sensor_id;sensor_type;location;lat;lon;timestamp;P1;durP1;ratioP1;P2;durP2;ratioP2
39908;SDS011;25576;48.328;15.694;2022-10-16T00:00:07;7.40;;;3.35;;
39908;SDS011;25576;48.328;15.694;2022-10-16T00:02:35;5.35;;;2.92;;
39908;SDS011;25576;48.328;15.694;2022-10-16T00:05:04;7.53;;;3.85;;
39908;SDS011;25576;48.328;15.694;2022-10-16T00:07:44;5.90;;;3.40;;
39908;SDS011;25576;48.328;15.694;2022-10-16T00:10:13;6.75;;;3.20;;
39908;SDS011;25576;48.328;15.694;2022-10-16T00:12:40;7.25;;;3.35;;
39908;SDS011;25576;48.328;15.694;2022-10-16T00:17:57;7.07;;;3.22;;
39908;SDS011;25576;48.328;15.694;2022-10-16T00:20:25;8.07;;;4.03;;
39908;SDS011;25576;48.328;15.694;2022-10-16T00:22:56;6.70;;;3.45;;
39908;SDS011;25576;48.328;15.694;2022-10-16T00:25:24;8.35;;;3.45;;
39908;SDS011;25576;48.328;15.694;2022-10-16T00:27:51;5.25;;;3.28;;
39908;SDS011;25576;48.328;15.694;2022-10-16T00:30:19;6.45;;;3.42;;
39908;SDS011;25576;48.328;15.694;2022-10-16T00:32:47;5.63;;;3.03;;
39908;SDS011;25576;48.328;15.694;2022-10-16T00:35:14;5.63;;;3.30;;
39908;SDS011;25576;48.328;15.694;2022-10-16T00:37:55;6.68;;;3.50;;
39908;SDS011;25576;48.328;15.694;2022-10-16T00:40:22;7.35;;;3.08;;
39908;SDS011;25576;48.328;15.694;2022-10-16T00:42:49;7.07;;;4.00;;
39908;SDS011;25576;48.328;15.694;2022-10-16T00:45:17;6.25;;;3.42;;
39908;SDS011;25576;48.328;15.694;2022-10-16T00:47:45;6.60;;;3.42;;
39908;SDS011;25576;48.328;15.694;2022-10-16T00:50:16;8.43;;;3.63;;
39908;SDS011;25576;48.328;15.694;2022-10-16T00:52:51;7.65;;;3.95;;
39908;SDS011;25576;48.328;15.694;2022-10-16T00:55:22;8.93;;;3.50;;
39908;SDS011;25576;48.328;15.694;2022-10-16T00:57:59;10.07;;;4.22;;
39908;SDS011;25576;48.328;15.694;2022-10-16T01:00:36;7.70;;;3.80;;
39908;SDS011;25576;48.328;15.694;2022-10-16T01:05:54;7.30;;;4.05;;
39908;SDS011;25576;48.328;15.694;2022-10-16T01:08:36;10.02;;;4.35;;
39908;SDS011;25576;48.328;15.694;2022-10-16T01:11:16;8.23;;;3.95;;
39908;SDS011;25576;48.328;15.694;2022-10-16T01:13:52;7.30;;;3.72;;
39908;SDS011;25576;48.328;15.694;2022-10-16T01:16:30;8.40;;;3.92;;
39908;SDS011;25576;48.328;15.694;2022-10-16T01:21:36;7.63;;;3.67;;
39908;SDS011;25576;48.328;15.694;2022-10-16T01:24:08;8.20;;;4.18;;
39908;SDS011;25576;48.328;15.694;2022-10-16T01:26:47;7.40;;;4.10;;
39908;SDS011;25576;48.328;15.694;2022-10-16T01:29:45;8.38;;;4.03;;
39908;SDS011;25576;48.328;15.694;2022-10-16T01:32:30;7.78;;;3.90;;
39908;SDS011;25576;48.328;15.694;2022-10-16T01:35:12;6.45;;;4.00;;
39908;SDS011;25576;48.328;15.694;2022-10-16T01:37:46;6.97;;;3.90;;
39908;SDS011;25576;48.328;15.694;2022-10-16T01:40:19;6.72;;;3.85;;
39908;SDS011;25576;48.328;15.694;2022-10-16T01:42:52;7.85;;;4.40;;
39908;SDS011;25576;48.328;15.694;2022-10-16T01:45:22;9.02;;;4.47;;
39908;SDS011;25576;48.328;15.694;2022-10-16T01:47:49;10.85;;;4.28;;
39908;SDS011;25576;48.328;15.694;2022-10-16T01:50:22;6.82;;;3.40;;
39908;SDS011;25576;48.328;15.694;2022-10-16T01:52:56;6.53;;;3.80;;
39908;SDS011;25576;48.328;15.694;2022-10-16T01:57:54;5.72;;;3.22;;
39908;SDS011;25576;48.328;15.694;2022-10-16T02:00:24;6.10;;;3.40;;
39908;SDS011;25576;48.328;15.694;2022-10-16T02:02:54;6.35;;;3.50;;
39908;SDS011;25576;48.328;15.694;2022-10-16T02:05:25;5.75;;;3.03;;
39908;SDS011;25576;48.328;15.694;2022-10-16T02:07:57;6.28;;;3.78;;
39908;SDS011;25576;48.328;15.694;2022-10-16T02:10:26;6.50;;;3.97;;
39908;SDS011;25576;48.328;15.694;2022-10-16T02:12:58;3.67;;;2.97;;
39908;SDS011;25576;48.328;15.694;2022-10-16T02:15:29;6.47;;;3.30;;
39908;SDS011;25576;48.328;15.694;2022-10-16T02:17:56;7.40;;;4.05;;
39908;SDS011;25576;48.328;15.694;2022-10-16T02:20:25;8.95;;;4.30;;
39908;SDS011;25576;48.328;15.694;2022-10-16T02:22:55;11.38;;;5.35;;
39908;SDS011;25576;48.328;15.694;2022-10-16T02:25:25;11.43;;;5.30;;
39908;SDS011;25576;48.328;15.694;2022-10-16T02:28:06;12.73;;;6.30;;
39908;SDS011;25576;48.328;15.694;2022-10-16T02:30:38;12.65;;;5.57;;
39908;SDS011;25576;48.328;15.694;2022-10-16T02:33:09;13.80;;;7.03;;
39908;SDS011;25576;48.328;15.694;2022-10-16T02:35:44;13.98;;;7.00;;
39908;SDS011;25576;48.328;15.694;2022-10-16T02:38:14;12.43;;;6.45;;
39908;SDS011;25576;48.328;15.694;2022-10-16T02:40:42;11.52;;;5.85;;
39908;SDS011;25576;48.328;15.694;2022-10-16T02:43:13;10.77;;;5.75;;
39908;SDS011;25576;48.328;15.694;2022-10-16T02:45:46;12.88;;;6.50;;
39908;SDS011;25576;48.328;15.694;2022-10-16T02:50:50;13.25;;;6.57;;
39908;SDS011;25576;48.328;15.694;2022-10-16T02:53:18;11.82;;;6.50;;
39908;SDS011;25576;48.328;15.694;2022-10-16T02:55:45;13.10;;;6.90;;
39908;SDS011;25576;48.328;15.694;2022-10-16T02:58:13;15.70;;;8.05;;
39908;SDS011;25576;48.328;15.694;2022-10-16T03:00:41;16.35;;;7.90;;
39908;SDS011;25576;48.328;15.694;2022-10-16T03:03:09;15.95;;;7.38;;
39908;SDS011;25576;48.328;15.694;2022-10-16T03:05:36;15.00;;;8.52;;
39908;SDS011;25576;48.328;15.694;2022-10-16T03:08:03;14.65;;;7.30;;
39908;SDS011;25576;48.328;15.694;2022-10-16T03:10:31;15.82;;;8.57;;
39908;SDS011;25576;48.328;15.694;2022-10-16T03:12:58;12.07;;;6.60;;
39908;SDS011;25576;48.328;15.694;2022-10-16T03:15:27;12.57;;;7.78;;
39908;SDS011;25576;48.328;15.694;2022-10-16T03:17:54;12.15;;;6.43;;
39908;SDS011;25576;48.328;15.694;2022-10-16T03:20:23;12.52;;;6.70;;
39908;SDS011;25576;48.328;15.694;2022-10-16T03:23:03;7.43;;;4.60;;
39908;SDS011;25576;48.328;15.694;2022-10-16T03:28:04;5.38;;;2.70;;
39908;SDS011;25576;48.328;15.694;2022-10-16T03:30:37;4.47;;;2.47;;
39908;SDS011;25576;48.328;15.694;2022-10-16T03:33:12;3.42;;;2.10;;
39908;SDS011;25576;48.328;15.694;2022-10-16T03:35:39;4.13;;;2.88;;
39908;SDS011;25576;48.328;15.694;2022-10-16T03:40:47;5.30;;;2.75;;
39908;SDS011;25576;48.328;15.694;2022-10-16T03:43:15;5.32;;;2.63;;
39908;SDS011;25576;48.328;15.694;2022-10-16T03:45:47;3.78;;;2.33;;
39908;SDS011;25576;48.328;15.694;2022-10-16T03:48:18;4.28;;;2.55;;
39908;SDS011;25576;48.328;15.694;2022-10-16T03:50:45;4.78;;;2.90;;
39908;SDS011;25576;48.328;15.694;2022-10-16T03:53:13;4.80;;;2.83;;
39908;SDS011;25576;48.328;15.694;2022-10-16T03:55:41;5.35;;;3.10;;
39908;SDS011;25576;48.328;15.694;2022-10-16T03:58:09;4.60;;;2.95;;
39908;SDS011;25576;48.328;15.694;2022-10-16T04:03:10;4.55;;;2.78;;
39908;SDS011;25576;48.328;15.694;2022-10-16T04:05:39;6.78;;;3.88;;
39908;SDS011;25576;48.328;15.694;2022-10-16T04:08:08;4.75;;;3.30;;
39908;SDS011;25576;48.328;15.694;2022-10-16T04:10:37;4.93;;;3.47;;
39908;SDS011;25576;48.328;15.694;2022-10-16T04:13:04;5.80;;;3.22;;
39908;SDS011;25576;48.328;15.694;2022-10-16T04:15:31;4.32;;;2.63;;
39908;SDS011;25576;48.328;15.694;2022-10-16T04:17:58;4.18;;;2.67;;
39908;SDS011;25576;48.328;15.694;2022-10-16T04:20:33;5.43;;;3.17;;
39908;SDS011;25576;48.328;15.694;2022-10-16T04:23:00;6.07;;;3.47;;
39908;SDS011;25576;48.328;15.694;2022-10-16T04:25:37;7.30;;;4.40;;
39908;SDS011;25576;48.328;15.694;2022-10-16T04:28:05;18.35;;;8.57;;
39908;SDS011;25576;48.328;15.694;2022-10-16T04:30:33;19.15;;;9.50;;
39908;SDS011;25576;48.328;15.694;2022-10-16T04:33:02;15.57;;;8.45;;
39908;SDS011;25576;48.328;15.694;2022-10-16T04:35:29;24.23;;;9.52;;
39908;SDS011;25576;48.328;15.694;2022-10-16T04:37:58;23.45;;;10.40;;
39908;SDS011;25576;48.328;15.694;2022-10-16T04:40:38;15.30;;;9.27;;
39908;SDS011;25576;48.328;15.694;2022-10-16T04:43:16;18.63;;;9.30;;
39908;SDS011;25576;48.328;15.694;2022-10-16T04:48:15;20.98;;;10.93;;
39908;SDS011;25576;48.328;15.694;2022-10-16T04:50:50;17.80;;;9.25;;
39908;SDS011;25576;48.328;15.694;2022-10-16T04:53:21;21.00;;;9.93;;
39908;SDS011;25576;48.328;15.694;2022-10-16T04:55:48;22.38;;;9.95;;
39908;SDS011;25576;48.328;15.694;2022-10-16T04:58:16;20.13;;;10.00;;
39908;SDS011;25576;48.328;15.694;2022-10-16T05:00:44;16.08;;;8.43;;
39908;SDS011;25576;48.328;15.694;2022-10-16T05:03:13;16.20;;;8.43;;
39908;SDS011;25576;48.328;15.694;2022-10-16T05:05:42;16.67;;;9.10;;
39908;SDS011;25576;48.328;15.694;2022-10-16T05:08:11;15.65;;;8.57;;
39908;SDS011;25576;48.328;15.694;2022-10-16T05:10:44;15.80;;;8.30;;
39908;SDS011;25576;48.328;15.694;2022-10-16T05:13:16;14.70;;;8.82;;
39908;SDS011;25576;48.328;15.694;2022-10-16T05:18:32;16.88;;;8.95;;
39908;SDS011;25576;48.328;15.694;2022-10-16T05:21:00;18.98;;;8.68;;
39908;SDS011;25576;48.328;15.694;2022-10-16T05:23:27;16.95;;;8.80;;
39908;SDS011;25576;48.328;15.694;2022-10-16T05:25:55;15.77;;;8.23;;
39908;SDS011;25576;48.328;15.694;2022-10-16T05:28:24;16.48;;;8.57;;
39908;SDS011;25576;48.328;15.694;2022-10-16T05:30:54;11.15;;;7.13;;
39908;SDS011;25576;48.328;15.694;2022-10-16T05:33:23;12.40;;;6.65;;
39908;SDS011;25576;48.328;15.694;2022-10-16T05:38:30;9.15;;;5.45;;
39908;SDS011;25576;48.328;15.694;2022-10-16T05:41:02;11.13;;;5.25;;
39908;SDS011;25576;48.328;15.694;2022-10-16T05:43:30;19.83;;;10.93;;
39908;SDS011;25576;48.328;15.694;2022-10-16T05:45:59;12.98;;;8.18;;
39908;SDS011;25576;48.328;15.694;2022-10-16T05:48:27;13.27;;;6.47;;
39908;SDS011;25576;48.328;15.694;2022-10-16T05:50:58;9.27;;;4.95;;
39908;SDS011;25576;48.328;15.694;2022-10-16T05:53:27;7.00;;;3.38;;
39908;SDS011;25576;48.328;15.694;2022-10-16T05:55:56;6.25;;;3.65;;
39908;SDS011;25576;48.328;15.694;2022-10-16T05:58:25;6.15;;;3.22;;
39908;SDS011;25576;48.328;15.694;2022-10-16T06:00:56;4.07;;;2.78;;
39908;SDS011;25576;48.328;15.694;2022-10-16T06:03:30;4.35;;;2.70;;
39908;SDS011;25576;48.328;15.694;2022-10-16T06:05:58;4.30;;;2.85;;
39908;SDS011;25576;48.328;15.694;2022-10-16T06:08:25;3.92;;;2.80;;
39908;SDS011;25576;48.328;15.694;2022-10-16T06:11:00;4.85;;;3.00;;
39908;SDS011;25576;48.328;15.694;2022-10-16T06:16:00;7.47;;;3.95;;
39908;SDS011;25576;48.328;15.694;2022-10-16T06:18:34;6.82;;;3.63;;
39908;SDS011;25576;48.328;15.694;2022-10-16T06:21:06;10.88;;;4.82;;
39908;SDS011;25576;48.328;15.694;2022-10-16T06:23:35;8.52;;;4.93;;
39908;SDS011;25576;48.328;15.694;2022-10-16T06:26:05;9.13;;;5.22;;
39908;SDS011;25576;48.328;15.694;2022-10-16T06:28:38;8.23;;;4.95;;
39908;SDS011;25576;48.328;15.694;2022-10-16T06:33:38;8.73;;;4.68;;
39908;SDS011;25576;48.328;15.694;2022-10-16T06:36:06;10.43;;;6.03;;
39908;SDS011;25576;48.328;15.694;2022-10-16T06:38:35;11.30;;;5.78;;
39908;SDS011;25576;48.328;15.694;2022-10-16T06:41:11;9.77;;;4.83;;
39908;SDS011;25576;48.328;15.694;2022-10-16T06:43:41;10.00;;;6.00;;
39908;SDS011;25576;48.328;15.694;2022-10-16T06:46:10;14.27;;;6.55;;
39908;SDS011;25576;48.328;15.694;2022-10-16T06:48:38;14.20;;;8.02;;
39908;SDS011;25576;48.328;15.694;2022-10-16T06:51:06;15.75;;;7.55;;
39908;SDS011;25576;48.328;15.694;2022-10-16T06:53:36;33.22;;;14.23;;
39908;SDS011;25576;48.328;15.694;2022-10-16T06:56:07;32.17;;;14.30;;
39908;SDS011;25576;48.328;15.694;2022-10-16T06:58:36;13.18;;;7.47;;
39908;SDS011;25576;48.328;15.694;2022-10-16T07:03:44;6.97;;;4.10;;
39908;SDS011;25576;48.328;15.694;2022-10-16T07:06:15;8.32;;;4.55;;
39908;SDS011;25576;48.328;15.694;2022-10-16T07:08:50;7.85;;;4.57;;
39908;SDS011;25576;48.328;15.694;2022-10-16T07:11:20;7.57;;;4.78;;
39908;SDS011;25576;48.328;15.694;2022-10-16T07:13:49;7.93;;;4.30;;
39908;SDS011;25576;48.328;15.694;2022-10-16T07:16:21;8.05;;;3.97;;
39908;SDS011;25576;48.328;15.694;2022-10-16T07:18:49;8.93;;;3.97;;
39908;SDS011;25576;48.328;15.694;2022-10-16T07:21:23;5.80;;;3.67;;
39908;SDS011;25576;48.328;15.694;2022-10-16T07:23:52;6.60;;;4.43;;
39908;SDS011;25576;48.328;15.694;2022-10-16T07:26:20;6.35;;;3.40;;
39908;SDS011;25576;48.328;15.694;2022-10-16T07:28:47;7.32;;;3.58;;
39908;SDS011;25576;48.328;15.694;2022-10-16T07:31:14;8.43;;;3.92;;
39908;SDS011;25576;48.328;15.694;2022-10-16T07:33:44;9.23;;;4.10;;
39908;SDS011;25576;48.328;15.694;2022-10-16T07:36:14;5.28;;;3.05;;
39908;SDS011;25576;48.328;15.694;2022-10-16T07:41:18;10.77;;;4.93;;
39908;SDS011;25576;48.328;15.694;2022-10-16T07:43:46;6.47;;;4.07;;
39908;SDS011;25576;48.328;15.694;2022-10-16T07:46:21;19.17;;;9.13;;
39908;SDS011;25576;48.328;15.694;2022-10-16T07:48:56;12.00;;;5.22;;
39908;SDS011;25576;48.328;15.694;2022-10-16T07:51:29;7.93;;;4.35;;
39908;SDS011;25576;48.328;15.694;2022-10-16T07:53:56;7.03;;;4.47;;
39908;SDS011;25576;48.328;15.694;2022-10-16T07:56:24;5.80;;;3.30;;
39908;SDS011;25576;48.328;15.694;2022-10-16T07:58:52;6.03;;;3.75;;
39908;SDS011;25576;48.328;15.694;2022-10-16T08:01:23;6.30;;;3.53;;
39908;SDS011;25576;48.328;15.694;2022-10-16T08:03:50;7.63;;;3.95;;
39908;SDS011;25576;48.328;15.694;2022-10-16T08:06:22;6.80;;;3.83;;
39908;SDS011;25576;48.328;15.694;2022-10-16T08:08:50;7.80;;;3.60;;
39908;SDS011;25576;48.328;15.694;2022-10-16T08:11:18;6.72;;;4.03;;
39908;SDS011;25576;48.328;15.694;2022-10-16T08:13:45;9.93;;;5.45;;
39908;SDS011;25576;48.328;15.694;2022-10-16T08:16:12;11.25;;;4.75;;
39908;SDS011;25576;48.328;15.694;2022-10-16T08:18:40;7.93;;;5.00;;
39908;SDS011;25576;48.328;15.694;2022-10-16T08:21:08;8.75;;;4.60;;
39908;SDS011;25576;48.328;15.694;2022-10-16T08:23:47;8.25;;;4.25;;
39908;SDS011;25576;48.328;15.694;2022-10-16T08:26:14;6.93;;;4.60;;
39908;SDS011;25576;48.328;15.694;2022-10-16T08:28:43;12.70;;;6.43;;
39908;SDS011;25576;48.328;15.694;2022-10-16T08:31:11;12.00;;;6.25;;
39908;SDS011;25576;48.328;15.694;2022-10-16T08:38:39;11.88;;;6.75;;
39908;SDS011;25576;48.328;15.694;2022-10-16T08:41:22;11.70;;;7.60;;
39908;SDS011;25576;48.328;15.694;2022-10-16T08:47:02;10.52;;;5.78;;
39908;SDS011;25576;48.328;15.694;2022-10-16T08:49:51;11.25;;;5.25;;
39908;SDS011;25576;48.328;15.694;2022-10-16T08:52:25;12.80;;;5.72;;
39908;SDS011;25576;48.328;15.694;2022-10-16T08:54:56;10.95;;;6.38;;
39908;SDS011;25576;48.328;15.694;2022-10-16T08:57:27;10.90;;;5.82;;
39908;SDS011;25576;48.328;15.694;2022-10-16T09:00:11;12.00;;;6.10;;
39908;SDS011;25576;48.328;15.694;2022-10-16T09:02:42;11.23;;;6.15;;
39908;SDS011;25576;48.328;15.694;2022-10-16T09:05:18;11.77;;;6.55;;
39908;SDS011;25576;48.328;15.694;2022-10-16T09:08:01;10.30;;;5.30;;
39908;SDS011;25576;48.328;15.694;2022-10-16T09:10:37;12.25;;;6.22;;
39908;SDS011;25576;48.328;15.694;2022-10-16T09:13:21;17.67;;;7.95;;
39908;SDS011;25576;48.328;15.694;2022-10-16T09:15:54;14.75;;;8.05;;
39908;SDS011;25576;48.328;15.694;2022-10-16T09:18:31;10.60;;;6.15;;
39908;SDS011;25576;48.328;15.694;2022-10-16T09:21:06;9.95;;;5.60;;
39908;SDS011;25576;48.328;15.694;2022-10-16T09:23:46;10.82;;;5.95;;
39908;SDS011;25576;48.328;15.694;2022-10-16T09:26:14;10.70;;;6.00;;
39908;SDS011;25576;48.328;15.694;2022-10-16T09:28:54;13.82;;;6.82;;
39908;SDS011;25576;48.328;15.694;2022-10-16T09:31:22;13.00;;;6.90;;
